Time;durP1;ratioP1;P1;durP2;ratioP2;P2;SDS_P1;SDS_P2;PMS_P1;PMS_P2;Temp;Humidity;BMP_temperature;BMP_pressure;BME280_temperature;BME280_humidity;BME280_pressure;Samples;Min_cycle;Max_cycle;Signal;HPM_P1;HPM_P2
2022/04/23 00:02:01;;;;;;;15.85;13.68;;;11.20;99.90;;;;;;5087833;28;20041;-81
2022/04/23 00:04:30;;;;;;;14.63;12.77;;;11.30;99.90;;;;;;5088771;28;20489;-81
2022/04/23 00:06:59;;;;;;;16.55;13.68;;;11.20;99.90;;;;;;5088236;28;20040;-81
2022/04/23 00:09:25;;;;;;;16.58;12.90;;;11.20;99.90;;;;;;5071642;28;20040;-81
2022/04/23 00:11:55;;;;;;;16.45;13.60;;;11.30;99.90;;;;;;5071380;28;20101;-81
2022/04/23 00:14:24;;;;;;;16.48;13.85;;;11.30;99.90;;;;;;5071487;28;20041;-81
2022/04/23 00:16:50;;;;;;;15.95;13.15;;;11.20;99.90;;;;;;5037984;28;20046;-81
2022/04/23 00:19:19;;;;;;;17.23;14.05;;;11.30;99.90;;;;;;5038707;28;20040;-81
2022/04/23 00:21:46;;;;;;;17.80;13.90;;;11.20;99.90;;;;;;5089175;28;20086;-81
2022/04/23 00:24:12;;;;;;;17.25;14.40;;;11.20;99.90;;;;;;5075519;28;20036;-81
2022/04/23 00:26:37;;;;;;;16.23;14.05;;;11.10;99.90;;;;;;5075447;28;20047;-81
2022/04/23 00:29:03;;;;;;;16.63;14.07;;;11.20;99.90;;;;;;5092093;28;20040;-81
2022/04/23 00:31:29;;;;;;;17.48;14.85;;;11.10;99.90;;;;;;5057786;28;20404;-81
2022/04/23 00:33:55;;;;;;;15.93;14.18;;;11.10;99.90;;;;;;5058611;28;20093;-81
2022/04/23 00:36:23;;;;;;;18.77;15.30;;;11.20;99.90;;;;;;5058282;28;20446;-81
2022/04/23 00:38:53;;;;;;;17.85;14.13;;;11.10;99.90;;;;;;5058432;28;20052;-81
2022/04/23 00:44:07;;;;;;;16.70;14.60;;;11.00;99.90;;;;;;5061435;28;20458;-81
2022/04/23 00:46:33;;;;;;;16.13;13.82;;;11.00;99.90;;;;;;5057828;28;20076;-81
2022/04/23 00:48:59;;;;;;;16.80;14.18;;;11.10;99.90;;;;;;5074978;28;20037;-81
2022/04/23 00:51:29;;;;;;;16.13;14.30;;;11.10;99.90;;;;;;5058238;28;20597;-81
2022/04/23 00:53:56;;;;;;;17.35;14.93;;;11.00;99.90;;;;;;5074780;28;20041;-81
2022/04/23 00:56:25;;;;;;;17.30;14.68;;;11.00;99.90;;;;;;5074549;28;20105;-81
2022/04/23 00:58:52;;;;;;;16.40;14.65;;;11.00;99.90;;;;;;5058129;28;20079;-81
2022/04/23 01:01:23;;;;;;;18.95;15.23;;;10.90;99.90;;;;;;5074255;28;20396;-81
2022/04/23 01:03:49;;;;;;;17.17;14.93;;;10.90;99.90;;;;;;5075052;28;20514;-81
2022/04/23 01:06:16;;;;;;;17.35;15.18;;;10.90;99.90;;;;;;5074397;28;20173;-81
2022/04/23 01:08:42;;;;;;;16.35;14.65;;;10.90;99.90;;;;;;5074790;28;20040;-81
2022/04/23 01:11:08;;;;;;;16.25;14.52;;;10.80;99.90;;;;;;5057713;28;20043;-81
2022/04/23 01:13:33;;;;;;;18.13;15.43;;;10.80;99.90;;;;;;5091528;28;20043;-81
2022/04/23 01:16:04;;;;;;;16.83;14.93;;;10.80;99.90;;;;;;5056991;28;20066;-81
2022/04/23 01:18:32;;;;;;;17.85;15.13;;;10.70;99.90;;;;;;5071293;28;20033;-81
2022/04/23 01:21:01;;;;;;;16.65;14.73;;;10.60;99.90;;;;;;5074180;28;20051;-81
2022/04/23 01:23:29;;;;;;;16.25;14.32;;;10.60;99.90;;;;;;5074576;28;20507;-81
2022/04/23 01:25:55;;;;;;;17.13;14.65;;;10.60;99.90;;;;;;5057647;28;20041;-81
2022/04/23 01:28:22;;;;;;;17.55;15.60;;;10.60;99.90;;;;;;5074539;28;20518;-81
2022/04/23 01:30:52;;;;;;;17.33;15.38;;;10.50;99.90;;;;;;5056538;28;20052;-81
2022/04/23 01:33:18;;;;;;;18.05;15.00;;;10.50;99.90;;;;;;5056714;28;20047;-81
2022/04/23 01:35:44;;;;;;;16.65;14.85;;;10.40;99.90;;;;;;5040554;28;20040;-81
2022/04/23 01:38:13;;;;;;;16.40;14.52;;;10.30;99.90;;;;;;5072960;28;20049;-81
2022/04/23 01:40:39;;;;;;;17.30;15.50;;;10.40;99.90;;;;;;5057061;28;20086;-81
2022/04/23 01:43:05;;;;;;;16.25;14.48;;;10.30;99.90;;;;;;5040824;28;20040;-81
2022/04/23 01:45:31;;;;;;;16.17;14.48;;;10.30;99.90;;;;;;5073441;28;20123;-81
2022/04/23 01:47:57;;;;;;;17.75;14.93;;;10.30;99.90;;;;;;5073666;28;20539;-81
2022/04/23 01:50:23;;;;;;;17.17;15.35;;;10.30;99.90;;;;;;5073962;28;20506;-81
2022/04/23 01:52:49;;;;;;;16.85;14.45;;;10.30;99.90;;;;;;5057161;28;20036;-81
2022/04/23 01:55:14;;;;;;;17.77;14.13;;;10.30;99.90;;;;;;5073797;28;20037;-81
2022/04/23 01:57:40;;;;;;;16.27;14.32;;;10.20;99.90;;;;;;5090435;28;20101;-81
2022/04/23 02:00:08;;;;;;;16.75;14.73;;;10.20;99.90;;;;;;5057268;28;20029;-81
2022/04/23 02:02:36;;;;;;;19.15;15.63;;;10.10;99.90;;;;;;5056575;28;20040;-81
2022/04/23 02:05:03;;;;;;;17.20;14.45;;;10.00;99.90;;;;;;5040968;28;20052;-81
2022/04/23 02:07:29;;;;;;;17.40;14.50;;;9.90;99.90;;;;;;5057012;28;20051;-81
2022/04/23 02:09:55;;;;;;;17.85;15.45;;;9.80;99.90;;;;;;5057030;28;20036;-82
2022/04/23 02:12:20;;;;;;;16.30;14.27;;;9.70;99.90;;;;;;5056760;28;20127;-82
2022/04/23 02:14:48;;;;;;;17.15;14.05;;;9.60;99.90;;;;;;5056703;28;20041;-82
2022/04/23 02:17:14;;;;;;;18.45;14.40;;;9.50;99.90;;;;;;5089345;28;20083;-81
2022/04/23 02:19:40;;;;;;;17.13;13.88;;;9.50;99.90;;;;;;5023620;28;20079;-81
2022/04/23 02:22:06;;;;;;;18.05;13.57;;;9.40;99.90;;;;;;5073002;28;20045;-81
2022/04/23 02:24:32;;;;;;;18.15;14.38;;;9.40;99.90;;;;;;5073230;28;20040;-81
2022/04/23 02:26:57;;;;;;;17.95;13.82;;;9.40;99.90;;;;;;5056221;28;20090;-81
2022/04/23 02:29:23;;;;;;;17.85;13.95;;;9.40;99.90;;;;;;5073183;28;20440;-81
2022/04/23 02:31:49;;;;;;;16.15;13.43;;;9.40;99.90;;;;;;5055596;28;20079;-81
2022/04/23 02:34:15;;;;;;;18.48;13.73;;;9.40;99.90;;;;;;5089937;28;20452;-81
2022/04/23 02:36:40;;;;;;;17.10;14.32;;;9.30;99.90;;;;;;5023172;28;20119;-81
2022/04/23 02:39:06;;;;;;;18.63;14.25;;;9.30;99.90;;;;;;5089704;28;20173;-81
2022/04/23 02:41:32;;;;;;;17.90;15.25;;;9.30;99.90;;;;;;5039799;28;20036;-81
2022/04/23 02:43:57;;;;;;;15.98;14.00;;;9.20;99.90;;;;;;5072725;28;20032;-81
2022/04/23 02:46:24;;;;;;;16.77;14.23;;;9.30;99.90;;;;;;5055225;28;20384;-81
2022/04/23 02:48:50;;;;;;;18.17;14.30;;;9.20;99.90;;;;;;5055986;28;20101;-81
2022/04/23 02:51:16;;;;;;;17.00;12.52;;;9.30;99.90;;;;;;5055738;28;20040;-81
2022/04/23 02:53:45;;;;;;;19.10;15.25;;;9.20;99.90;;;;;;5072697;28;20133;-81
2022/04/23 02:56:13;;;;;;;18.23;15.50;;;9.20;99.90;;;;;;5072339;28;20044;-81
2022/04/23 02:58:41;;;;;;;17.42;14.50;;;9.20;99.90;;;;;;5055770;28;20036;-81
2022/04/23 03:01:09;;;;;;;20.63;15.25;;;9.20;99.90;;;;;;5071582;28;20051;-81
2022/04/23 03:03:38;;;;;;;17.70;14.27;;;9.20;99.90;;;;;;5072714;28;20040;-81
2022/04/23 03:06:07;;;;;;;18.05;14.68;;;9.20;99.90;;;;;;5072740;28;20036;-81
2022/04/23 03:08:37;;;;;;;18.85;15.30;;;9.10;99.90;;;;;;5056077;28;20567;-81
2022/04/23 03:11:03;;;;;;;18.83;15.20;;;9.10;99.90;;;;;;5072195;28;20040;-81
2022/04/23 03:13:29;;;;;;;18.83;15.07;;;9.00;99.90;;;;;;5055980;28;20514;-81
2022/04/23 03:15:56;;;;;;;18.92;14.70;;;9.20;99.90;;;;;;5054797;28;20070;-81
2022/04/23 03:18:22;;;;;;;18.42;15.50;;;9.00;99.90;;;;;;5055574;28;20040;-81
2022/04/23 03:20:48;;;;;;;18.35;14.70;;;9.10;99.90;;;;;;5088759;28;20135;-81
2022/04/23 03:23:14;;;;;;;18.63;14.52;;;9.00;99.90;;;;;;5055426;28;20033;-81
2022/04/23 03:25:42;;;;;;;20.00;14.82;;;9.00;99.90;;;;;;5055235;28;20071;-81
2022/04/23 03:28:09;;;;;;;18.73;14.32;;;8.90;99.90;;;;;;5072049;28;20032;-81
2022/04/23 03:30:34;;;;;;;18.08;14.73;;;9.10;99.90;;;;;;5071585;28;20465;-81
2022/04/23 03:33:00;;;;;;;19.63;14.82;;;9.00;99.90;;;;;;5071966;28;20113;-81
2022/04/23 03:35:26;;;;;;;17.65;13.65;;;9.00;99.90;;;;;;5055278;28;20518;-81
2022/04/23 03:37:52;;;;;;;17.13;14.10;;;9.00;99.90;;;;;;5071569;28;20053;-81
2022/04/23 03:40:18;;;;;;;16.10;13.98;;;9.00;99.90;;;;;;5089000;28;20045;-81
2022/04/23 03:42:48;;;;;;;15.65;13.05;;;9.00;99.90;;;;;;5022472;28;20498;-81
2022/04/23 03:45:15;;;;;;;15.88;12.63;;;9.10;99.90;;;;;;5055773;28;20102;-81
2022/04/23 03:47:45;;;;;;;15.40;12.60;;;9.10;99.90;;;;;;5088193;28;20044;-81
2022/04/23 03:50:11;;;;;;;14.90;12.57;;;9.20;99.90;;;;;;5069545;28;20089;-81
2022/04/23 03:52:37;;;;;;;15.10;11.85;;;9.10;99.90;;;;;;5071632;28;20032;-81
2022/04/23 03:55:06;;;;;;;15.55;12.05;;;9.20;99.90;;;;;;5054953;28;20041;-81
2022/04/23 03:57:49;;;;;;;16.10;12.80;;;9.20;99.90;;;;;;5038130;28;20043;-81
2022/04/23 04:00:16;;;;;;;14.30;12.05;;;9.10;99.90;;;;;;5054995;28;20044;-81
2022/04/23 04:02:43;;;;;;;16.55;12.07;;;9.00;99.90;;;;;;5071009;28;20072;-81
2022/04/23 04:05:10;;;;;;;16.00;12.45;;;9.00;99.90;;;;;;5071650;28;20063;-81
2022/04/23 04:07:40;;;;;;;15.00;12.13;;;8.90;99.90;;;;;;5071494;28;20044;-81
2022/04/23 04:10:06;;;;;;;13.80;11.50;;;8.90;99.90;;;;;;5071697;28;20079;-81
2022/04/23 04:12:32;;;;;;;12.82;11.13;;;8.90;99.90;;;;;;5054868;28;20052;-81
2022/04/23 04:14:58;;;;;;;13.18;11.40;;;8.90;99.90;;;;;;5071525;28;20534;-81
2022/04/23 04:17:25;;;;;;;13.82;11.90;;;8.80;99.90;;;;;;5037427;28;20066;-81
2022/04/23 04:19:51;;;;;;;13.70;11.55;;;8.80;99.90;;;;;;5038339;28;20123;-81
2022/04/23 04:22:17;;;;;;;13.27;11.38;;;8.80;99.90;;;;;;5054644;28;20151;-81
2022/04/23 04:24:43;;;;;;;13.30;11.27;;;8.80;99.90;;;;;;5054855;28;20551;-81
2022/04/23 04:27:09;;;;;;;13.15;10.90;;;8.80;99.90;;;;;;5054572;28;20045;-81
2022/04/23 04:29:34;;;;;;;13.70;10.98;;;8.90;99.90;;;;;;5054940;28;20502;-81
2022/04/23 04:32:00;;;;;;;12.50;10.88;;;8.80;99.90;;;;;;5053992;28;20043;-81
2022/04/23 04:34:31;;;;;;;12.10;10.27;;;8.80;99.90;;;;;;5071521;28;20040;-81
2022/04/23 04:37:05;;;;;;;13.15;10.63;;;8.80;99.90;;;;;;5070933;28;20121;-81
2022/04/23 04:39:32;;;;;;;13.18;10.02;;;8.80;99.90;;;;;;5071418;28;20045;-81
2022/04/23 04:41:58;;;;;;;14.65;10.73;;;8.80;99.90;;;;;;5071291;28;20565;-81
2022/04/23 04:44:23;;;;;;;12.35;10.38;;;8.80;99.90;;;;;;5071562;28;20040;-81
2022/04/23 04:46:49;;;;;;;12.20;10.55;;;8.80;99.90;;;;;;5070367;28;20037;-81
2022/04/23 04:49:14;;;;;;;13.45;11.10;;;8.80;99.90;;;;;;5054621;28;20036;-81
2022/04/23 04:51:40;;;;;;;14.05;11.38;;;8.80;99.90;;;;;;5054534;28;20113;-81
2022/04/23 04:54:07;;;;;;;12.77;10.25;;;8.70;99.90;;;;;;5088109;28;20044;-81
2022/04/23 04:56:33;;;;;;;11.05;9.77;;;8.80;99.90;;;;;;5070946;28;20043;-81
2022/04/23 04:59:00;;;;;;;11.82;10.32;;;8.80;99.90;;;;;;5054854;28;20044;-81
2022/04/23 05:01:27;;;;;;;12.48;10.50;;;8.80;99.90;;;;;;5053881;28;20048;-81
2022/04/23 05:03:53;;;;;;;13.07;10.20;;;8.80;99.90;;;;;;5087937;28;20127;-81
2022/04/23 05:06:20;;;;;;;12.50;10.05;;;8.80;99.90;;;;;;5054347;28;20048;-81
2022/04/23 05:08:46;;;;;;;12.40;10.20;;;8.80;99.90;;;;;;5088936;28;20442;-81
2022/04/23 05:11:12;;;;;;;12.27;10.27;;;8.90;99.90;;;;;;5074590;28;20036;-81
2022/04/23 05:13:38;;;;;;;12.35;9.70;;;8.90;99.90;;;;;;5074111;28;20036;-80
2022/04/23 05:16:07;;;;;;;12.40;10.02;;;8.90;99.90;;;;;;5054837;28;20093;-80
2022/04/23 05:18:34;;;;;;;11.63;10.15;;;9.00;99.90;;;;;;5038437;28;20109;-80
2022/04/23 05:21:01;;;;;;;11.63;9.80;;;9.10;99.90;;;;;;5060802;28;20093;-80
2022/04/23 05:23:27;;;;;;;10.48;9.38;;;9.20;99.90;;;;;;5074183;28;20158;-80
2022/04/23 05:25:53;;;;;;;10.77;9.68;;;9.50;99.90;;;;;;5074288;28;20505;-80
2022/04/23 05:28:22;;;;;;;11.20;9.82;;;9.50;99.90;;;;;;5074398;28;20048;-86
2022/04/23 05:30:47;;;;;;;12.48;10.57;;;9.60;99.90;;;;;;5073473;28;20036;-86
2022/04/23 05:33:13;;;;;;;11.88;9.93;;;9.60;99.90;;;;;;5074187;28;20041;-85
2022/04/23 05:35:39;;;;;;;12.90;9.85;;;9.60;99.90;;;;;;5073943;28;20141;-85
2022/04/23 05:38:05;;;;;;;11.70;10.25;;;9.70;99.90;;;;;;5066879;28;20081;-82
2022/04/23 05:40:31;;;;;;;11.70;10.10;;;9.90;99.90;;;;;;5094239;28;20068;-82
2022/04/23 05:43:00;;;;;;;12.73;10.27;;;10.00;99.90;;;;;;5077430;28;20115;-82
2022/04/23 05:45:27;;;;;;;12.07;9.88;;;10.10;99.90;;;;;;5078268;28;20047;-82
2022/04/23 05:47:53;;;;;;;11.85;10.55;;;10.20;99.90;;;;;;5067128;28;20407;-82
2022/04/23 05:50:19;;;;;;;12.88;10.60;;;10.30;99.90;;;;;;5073218;28;20039;-81
2022/04/23 05:52:45;;;;;;;12.57;10.52;;;10.40;99.90;;;;;;5069029;28;20032;-81
2022/04/23 05:55:11;;;;;;;12.90;10.68;;;10.50;99.90;;;;;;5073764;28;20130;-82
2022/04/23 05:57:38;;;;;;;11.57;10.35;;;10.50;99.90;;;;;;5057006;28;20041;-82
2022/04/23 06:00:06;;;;;;;13.25;10.95;;;10.80;99.90;;;;;;5073582;28;20036;-82
2022/04/23 06:02:32;;;;;;;12.98;11.27;;;11.20;99.90;;;;;;5056735;28;20496;-82
2022/04/23 06:04:58;;;;;;;12.38;10.80;;;11.10;99.90;;;;;;5073864;28;20047;-82
2022/04/23 06:07:24;;;;;;;14.60;10.57;;;11.20;99.90;;;;;;5056807;28;20075;-82
2022/04/23 06:09:49;;;;;;;14.07;11.63;;;11.40;99.90;;;;;;5073749;28;20048;-83
2022/04/23 06:12:15;;;;;;;11.23;9.93;;;11.60;99.90;;;;;;5052784;28;20553;-82
2022/04/23 06:14:41;;;;;;;13.85;10.13;;;11.80;99.90;;;;;;5037296;28;20475;-82
2022/04/23 06:17:10;;;;;;;12.13;10.20;;;11.90;99.90;;;;;;5053579;28;20076;-83
2022/04/23 06:19:37;;;;;;;13.57;10.20;;;12.20;99.70;;;;;;5036833;28;20036;-82
2022/04/23 06:22:03;;;;;;;11.90;10.15;;;12.10;99.90;;;;;;5053164;28;20048;-85
2022/04/23 06:24:29;;;;;;;10.55;7.95;;;12.50;98.80;;;;;;5036776;28;20037;-80
2022/04/23 06:26:55;;;;;;;12.77;9.40;;;13.00;95.20;;;;;;5036590;28;20514;-82
2022/04/23 06:29:20;;;;;;;11.27;9.20;;;13.10;94.30;;;;;;5050112;28;20509;-81
2022/04/23 06:31:46;;;;;;;13.05;9.57;;;13.10;93.70;;;;;;5056212;28;20044;-80
2022/04/23 06:34:12;;;;;;;16.10;9.43;;;13.30;94.60;;;;;;5039920;28;20080;-81
2022/04/23 06:36:38;;;;;;;11.82;9.77;;;13.40;92.10;;;;;;5056631;28;20062;-81
2022/04/23 06:39:04;;;;;;;13.18;9.10;;;13.70;93.70;;;;;;5056506;28;20057;-81
2022/04/23 06:41:30;;;;;;;12.52;9.65;;;13.90;92.10;;;;;;5056202;28;20415;-81
2022/04/23 06:43:55;;;;;;;11.60;9.50;;;13.90;88.80;;;;;;5073124;28;20048;-82
2022/04/23 06:46:21;;;;;;;11.68;8.93;;;13.70;91.70;;;;;;5072110;28;20106;-82
2022/04/23 06:48:47;;;;;;;11.98;9.63;;;13.90;89.90;;;;;;5023269;28;20044;-82
2022/04/23 06:51:12;;;;;;;10.27;8.57;;;14.10;87.50;;;;;;5039632;28;20081;-82
2022/04/23 06:53:38;;;;;;;11.45;9.45;;;14.60;84.00;;;;;;5072640;28;20040;-82
2022/04/23 06:56:04;;;;;;;11.45;9.52;;;14.70;80.30;;;;;;5055926;28;20097;-83
2022/04/23 06:58:30;;;;;;;13.57;9.35;;;14.80;77.70;;;;;;5073030;28;20497;-84
2022/04/23 07:00:56;;;;;;;13.77;8.27;;;14.60;76.60;;;;;;5055310;28;20170;-82
2022/04/23 07:03:22;;;;;;;11.65;9.45;;;14.30;78.80;;;;;;5072605;28;20062;-81
2022/04/23 07:05:48;;;;;;;11.48;9.40;;;14.30;83.70;;;;;;5039458;28;20052;-82
2022/04/23 07:08:14;;;;;;;13.25;9.63;;;14.40;85.80;;;;;;5040709;28;20036;-81
2022/04/23 07:10:40;;;;;;;12.23;10.00;;;14.70;81.60;;;;;;5069079;28;20407;-81
2022/04/23 07:13:05;;;;;;;11.95;8.80;;;14.70;77.90;;;;;;5055909;28;20109;-81
2022/04/23 07:15:31;;;;;;;13.50;9.68;;;14.90;76.30;;;;;;5074645;28;20031;-81
2022/04/23 07:17:57;;;;;;;12.70;9.68;;;14.80;79.80;;;;;;5069657;28;20032;-81
2022/04/23 07:20:23;;;;;;;12.15;9.85;;;14.90;76.60;;;;;;5075283;28;20495;-81
2022/04/23 07:25:36;;;;;;;20.33;8.20;;;15.10;72.30;;;;;;5075136;28;20097;-82
2022/04/23 07:28:02;;;;;;;13.77;9.05;;;15.00;69.00;;;;;;5092639;28;20044;-82
2022/04/23 07:30:29;;;;;;;11.05;9.15;;;14.90;71.60;;;;;;5073948;28;20036;-82
2022/04/23 07:32:56;;;;;;;35.72;10.52;;;15.00;73.40;;;;;;5090926;28;20093;-80
2022/04/23 07:38:16;;;;;;;13.25;8.32;;;14.80;67.20;;;;;;5084175;28;20058;-79
2022/04/23 07:40:43;;;;;;;13.48;8.73;;;15.00;69.00;;;;;;5091938;28;20522;-79
2022/04/23 07:43:12;;;;;;;14.90;8.90;;;15.10;68.00;;;;;;5075223;28;20040;-80
2022/04/23 07:45:38;;;;;;;13.70;7.80;;;15.50;67.40;;;;;;5091994;28;20088;-79
2022/04/23 07:48:08;;;;;;;11.75;8.05;;;15.70;64.40;;;;;;5075287;28;20044;-79
2022/04/23 07:50:35;;;;;;;18.50;8.40;;;15.70;62.50;;;;;;5070146;28;20074;-79
2022/04/23 07:53:01;;;;;;;10.00;7.18;;;15.50;62.10;;;;;;5079974;28;20474;-79
2022/04/23 07:55:29;;;;;;;13.10;7.32;;;15.20;62.00;;;;;;5083623;28;20040;-79
2022/04/23 07:57:57;;;;;;;9.68;7.45;;;15.10;62.00;;;;;;5091381;28;20035;-79
2022/04/23 08:00:23;;;;;;;12.55;8.15;;;15.20;63.80;;;;;;5075006;28;20036;-80
2022/04/23 08:02:48;;;;;;;15.52;8.00;;;15.10;65.10;;;;;;5091608;28;20376;-79
2022/04/23 08:05:14;;;;;;;40.15;8.10;;;15.40;64.40;;;;;;5092512;28;20101;-82
2022/04/23 08:07:40;;;;;;;11.57;7.90;;;15.40;61.50;;;;;;5058871;28;20047;-82
2022/04/23 08:10:07;;;;;;;19.98;8.02;;;15.20;64.70;;;;;;5075494;28;20134;-83
2022/04/23 08:12:35;;;;;;;11.20;7.57;;;15.30;61.80;;;;;;5058418;28;20495;-83
2022/04/23 08:15:01;;;;;;;10.10;6.55;;;15.30;60.40;;;;;;5091707;28;20411;-83
2022/04/23 08:17:27;;;;;;;10.95;6.75;;;15.50;59.40;;;;;;5074663;28;20468;-84
2022/04/23 08:19:52;;;;;;;23.58;7.97;;;15.40;61.80;;;;;;5074965;28;20071;-83
2022/04/23 08:22:18;;;;;;;26.20;8.68;;;15.50;60.80;;;;;;5075241;28;20080;-83
2022/04/23 08:24:44;;;;;;;13.38;8.63;;;15.50;60.90;;;;;;5075102;28;20089;-83
2022/04/23 08:27:10;;;;;;;12.88;8.60;;;15.60;60.80;;;;;;5075173;28;20071;-83
2022/04/23 08:32:20;;;;;;;11.50;7.70;;;16.00;59.50;;;;;;5091059;28;20078;-83
2022/04/23 08:34:46;;;;;;;12.48;8.40;;;16.00;57.80;;;;;;5086353;28;20511;-84
2022/04/23 08:37:14;;;;;;;13.25;8.20;;;15.80;59.10;;;;;;5076492;28;20135;-82
2022/04/23 08:39:42;;;;;;;12.55;9.13;;;15.60;59.40;;;;;;5062691;28;20044;-82
2022/04/23 08:42:09;;;;;;;14.45;9.55;;;15.70;59.50;;;;;;5070524;28;20036;-85
2022/04/23 08:44:38;;;;;;;10.40;6.68;;;15.80;59.30;;;;;;5058545;28;20043;-82
2022/04/23 08:47:05;;;;;;;8.88;6.55;;;16.00;59.90;;;;;;5076363;28;20491;-83
2022/04/23 08:49:38;;;;;;;13.38;8.82;;;16.00;59.10;;;;;;5082470;28;20483;-83
2022/04/23 08:52:15;;;;;;;14.52;9.73;;;15.80;57.50;;;;;;5075876;28;20052;-83
2022/04/23 08:54:41;;;;;;;11.30;8.77;;;15.90;59.70;;;;;;5081390;28;20043;-85
2022/04/23 08:57:07;;;;;;;11.10;9.00;;;16.10;58.10;;;;;;5064060;28;20119;-84
2022/04/23 08:59:35;;;;;;;12.23;8.77;;;16.40;59.60;;;;;;5058540;28;20075;-84
2022/04/23 09:02:01;;;;;;;12.27;8.10;;;16.30;57.80;;;;;;5057523;28;20040;-83
2022/04/23 09:04:28;;;;;;;10.98;9.48;;;16.20;58.60;;;;;;5075234;28;20071;-84
2022/04/23 09:06:54;;;;;;;10.43;7.43;;;16.40;58.70;;;;;;5091744;28;20173;-84
2022/04/23 09:09:25;;;;;;;11.75;9.75;;;16.40;57.60;;;;;;5091700;28;20044;-84
2022/04/23 09:11:58;;;;;;;11.50;9.10;;;16.30;59.90;;;;;;5057944;28;20040;-83
2022/04/23 09:14:32;;;;;;;14.35;8.80;;;16.50;60.50;;;;;;5074817;28;20047;-83
2022/04/23 09:25:30;;;;;;;11.82;9.57;;;16.70;56.50;;;;;;5064215;28;20040;-85
2022/04/23 09:28:11;;;;;;;14.95;9.90;;;16.50;57.60;;;;;;5072627;28;20040;-87
2022/04/23 09:30:37;;;;;;;12.13;9.10;;;16.50;57.50;;;;;;5043071;28;20085;-84
2022/04/23 09:33:03;;;;;;;12.52;9.23;;;16.60;57.40;;;;;;5057935;28;20044;-86
2022/04/23 09:35:29;;;;;;;12.98;9.65;;;16.50;62.30;;;;;;5041185;28;20381;-86
2022/04/23 09:38:12;;;;;;;11.07;9.40;;;16.70;58.70;;;;;;5043857;28;20049;-84
2022/04/23 09:40:38;;;;;;;12.50;8.80;;;16.90;58.10;;;;;;5054625;28;20134;-84
2022/04/23 09:43:10;;;;;;;10.68;9.32;;;17.30;57.50;;;;;;5054478;28;20512;-86
2022/04/23 09:45:44;;;;;;;12.40;9.95;;;17.40;56.30;;;;;;5021003;28;20037;-85
2022/04/23 09:48:14;;;;;;;11.13;9.70;;;17.50;54.80;;;;;;5037897;28;20040;-85
2022/04/23 09:50:41;;;;;;;15.27;9.50;;;17.60;54.70;;;;;;5047201;28;20545;-86
2022/04/23 09:53:17;;;;;;;11.93;8.90;;;17.70;54.20;;;;;;5071518;28;20553;-86
2022/04/23 09:55:45;;;;;;;12.52;8.93;;;17.70;52.00;;;;;;5093282;28;20044;-85
2022/04/23 09:58:13;;;;;;;11.05;8.45;;;17.70;52.80;;;;;;5094336;28;20165;-85
2022/04/23 10:00:46;;;;;;;12.30;9.20;;;17.30;53.80;;;;;;5076413;28;20071;-84
2022/04/23 10:03:13;;;;;;;13.50;8.82;;;17.40;55.10;;;;;;5077908;28;20059;-84
2022/04/23 10:05:46;;;;;;;12.23;9.13;;;17.50;52.00;;;;;;5061004;28;20491;-84
2022/04/23 10:08:17;;;;;;;13.05;9.20;;;17.40;52.30;;;;;;5056031;28;20036;-84
2022/04/23 10:10:51;;;;;;;10.95;8.65;;;17.50;53.50;;;;;;5077866;28;20051;-84
2022/04/23 10:13:20;;;;;;;15.02;8.93;;;17.50;52.70;;;;;;5077556;28;20578;-84
2022/04/23 10:15:47;;;;;;;11.23;8.15;;;17.30;52.70;;;;;;5076535;28;20051;-84
2022/04/23 10:18:14;;;;;;;10.82;8.63;;;17.30;51.80;;;;;;5094100;28;20044;-84
2022/04/23 10:20:40;;;;;;;12.90;8.85;;;17.20;53.20;;;;;;5076937;28;20036;-84
2022/04/23 10:23:18;;;;;;;22.70;9.27;;;17.30;54.40;;;;;;5077337;28;20088;-84
2022/04/23 10:26:03;;;;;;;9.93;8.93;;;17.30;53.30;;;;;;5077488;28;20036;-85
2022/04/23 10:28:31;;;;;;;13.43;8.90;;;17.20;54.00;;;;;;5061572;28;20033;-85
2022/04/23 10:31:16;;;;;;;11.82;8.30;;;17.30;52.40;;;;;;5055641;28;20040;-85
2022/04/23 10:33:49;;;;;;;17.55;9.00;;;17.70;51.30;;;;;;5057074;28;20060;-85
2022/04/23 10:36:16;;;;;;;12.73;8.13;;;18.00;51.90;;;;;;5041385;28;20036;-85
2022/04/23 10:38:45;;;;;;;11.95;8.48;;;17.80;49.90;;;;;;5038697;28;20045;-85
2022/04/23 10:41:14;;;;;;;12.70;8.40;;;17.70;51.20;;;;;;5039682;28;20045;-85
2022/04/23 10:43:47;;;;;;;12.73;7.78;;;18.00;51.10;;;;;;5053573;28;20377;-86
2022/04/23 10:46:38;;;;;;;9.73;7.30;;;18.10;48.90;;;;;;5036080;28;20458;-86
2022/04/23 10:49:20;;;;;;;9.73;6.90;;;18.20;49.70;;;;;;5053211;28;20106;-85
2022/04/23 10:51:57;;;;;;;11.77;7.80;;;18.00;47.80;;;;;;5037082;28;20044;-87
2022/04/23 10:54:40;;;;;;;11.05;7.90;;;17.90;50.60;;;;;;5053271;28;20075;-85
2022/04/23 10:57:07;;;;;;;11.27;6.75;;;18.20;49.60;;;;;;5052840;28;20514;-86
2022/04/23 10:59:38;;;;;;;11.40;8.27;;;18.20;51.40;;;;;;5003836;28;20385;-84
2022/04/23 11:02:10;;;;;;;11.27;7.97;;;17.90;51.60;;;;;;5052437;28;20048;-84
2022/04/23 11:12:14;;;;;;;10.18;7.75;;;18.10;51.60;;;;;;5036213;28;20040;-84
2022/04/23 11:13:23;;;;;;;10.15;8.40;;;18.30;49.40;;;;;;5052849;28;20092;-84
2022/04/23 11:16:11;;;;;;;11.02;8.05;;;18.60;47.50;;;;;;5019025;28;20159;-83
2022/04/23 11:18:38;;;;;;;10.50;8.48;;;18.40;48.20;;;;;;5042953;28;20033;-83
2022/04/23 11:21:26;;;;;;;9.55;7.25;;;18.20;49.60;;;;;;5055883;28;20425;-84
2022/04/23 11:23:54;;;;;;;10.00;7.40;;;18.10;47.40;;;;;;5072619;28;20110;-87
2022/04/23 11:26:26;;;;;;;9.82;7.72;;;18.20;47.50;;;;;;5039578;28;20500;-85
2022/04/23 11:28:59;;;;;;;11.10;8.13;;;18.40;47.90;;;;;;5040271;28;20500;-84
2022/04/23 11:31:26;;;;;;;12.65;9.18;;;18.30;51.60;;;;;;5071387;28;20040;-84
2022/04/23 11:33:59;;;;;;;12.77;8.73;;;18.40;49.60;;;;;;5039150;28;20067;-86
2022/04/23 11:36:27;;;;;;;11.52;8.35;;;18.50;48.50;;;;;;5039252;28;20044;-86
2022/04/23 11:38:54;;;;;;;19.25;7.72;;;18.20;47.50;;;;;;5071963;28;20135;-86
2022/04/23 11:41:29;;;;;;;10.82;5.97;;;18.50;48.30;;;;;;5071907;28;20091;-86
2022/04/23 11:43:55;;;;;;;9.38;6.55;;;18.50;45.40;;;;;;5072121;28;20046;-84
2022/04/23 11:46:20;;;;;;;9.85;6.45;;;18.30;46.00;;;;;;5054778;28;20123;-85
2022/04/23 11:48:48;;;;;;;8.93;6.32;;;18.20;47.20;;;;;;5055175;28;20127;-86
2022/04/23 11:51:21;;;;;;;12.43;5.90;;;18.10;47.60;;;;;;5034925;28;20041;-85
2022/04/23 11:54:00;;;;;;;9.68;5.72;;;17.90;45.20;;;;;;5035487;28;20500;-85
2022/04/23 11:56:32;;;;;;;13.05;6.30;;;17.90;46.90;;;;;;5035730;28;20574;-84
2022/04/23 11:59:01;;;;;;;11.18;7.13;;;17.80;47.60;;;;;;5035382;28;20044;-87
2022/04/23 12:01:27;;;;;;;12.20;6.47;;;17.80;49.10;;;;;;5051510;28;20183;-84
2022/04/23 12:03:58;;;;;;;13.25;7.60;;;17.80;44.30;;;;;;5054181;28;20056;-86
2022/04/23 12:06:59;;;;;;;11.20;7.13;;;17.70;46.40;;;;;;5023025;28;20045;-86
2022/04/23 12:09:30;;;;;;;10.93;6.88;;;17.70;46.90;;;;;;5025599;28;20128;-87
2022/04/23 12:12:10;;;;;;;10.35;6.38;;;17.80;47.60;;;;;;5006715;28;20037;-87
2022/04/23 12:14:44;;;;;;;12.70;6.53;;;18.00;46.40;;;;;;5010295;28;20083;-87
2022/04/23 12:17:10;;;;;;;12.98;5.70;;;18.30;45.80;;;;;;5020493;28;20121;-86
2022/04/23 12:19:38;;;;;;;9.00;6.72;;;18.20;45.30;;;;;;5047041;28;20072;-86
2022/04/23 12:22:05;;;;;;;9.88;6.65;;;18.00;48.40;;;;;;5058099;28;20044;-86
2022/04/23 12:24:33;;;;;;;11.18;6.10;;;18.10;46.30;;;;;;5041379;28;20048;-86
2022/04/23 12:27:05;;;;;;;8.77;5.95;;;18.10;46.10;;;;;;5039271;28;20041;-86
2022/04/23 12:40:49;;;;;;;20.15;6.03;;;18.40;42.80;;;;;;5061751;28;20048;-86
2022/04/23 12:43:23;;;;;;;10.43;5.25;;;18.30;43.30;;;;;;5057361;28;20037;-86
2022/04/23 12:46:05;;;;;;;9.52;5.80;;;18.30;46.00;;;;;;5064585;28;20503;-87
2022/04/23 12:48:32;;;;;;;10.82;6.15;;;18.40;45.60;;;;;;5060990;28;20485;-86
2022/04/23 12:51:07;;;;;;;9.00;6.25;;;18.20;44.30;;;;;;5078609;28;20120;-86
2022/04/23 12:53:36;;;;;;;8.88;5.95;;;18.10;45.20;;;;;;5058788;28;20056;-86
2022/04/23 12:56:05;;;;;;;10.30;5.57;;;18.20;44.70;;;;;;5058706;28;20123;-87
2022/04/23 12:58:32;;;;;;;12.00;6.22;;;18.40;44.70;;;;;;5076882;28;20036;-87
2022/04/23 13:00:58;;;;;;;9.35;5.95;;;18.60;45.80;;;;;;5042025;28;20032;-87
2022/04/23 13:05:55;;;;;;;15.73;8.90;;;18.60;43.40;;;;;;5071520;28;20037;-87
2022/04/23 13:13:49;;;;;;;9.82;6.05;;;18.70;42.90;;;;;;5053021;28;20076;-87
2022/04/23 13:16:15;;;;;;;7.53;5.63;;;18.80;42.90;;;;;;5055463;28;20037;-86
2022/04/23 13:18:40;;;;;;;8.93;5.78;;;18.70;44.20;;;;;;5054840;28;20071;-86
2022/04/23 13:21:07;;;;;;;8.80;5.75;;;18.70;43.70;;;;;;5058524;28;20037;-86
2022/04/23 13:23:33;;;;;;;10.15;5.88;;;18.50;44.50;;;;;;5059026;28;20044;-86
2022/04/23 13:25:59;;;;;;;10.32;6.30;;;18.20;42.70;;;;;;5091798;28;20051;-86